FredonyerEastRWIS Atmospheric Data: 05/15/2019 Summary  Detailed Graphs  Station List

  Temperature     Wind Precipitation Visibility
Timestamp Air Wet
Bulb
Dew-
point
24-hr
Max
24-hr
Min
Relative
Humidity
Atmospheric
Pressure
Avg
Speed
Avg
Dir
Spot
Speed
Spot
Dir
Max
Speed
Max
Dir
  Rate Situation Start End 1 hr 3 hr 6 hr 12 hr 24 hr   Situation
Date Time °F °F °F °F °F % in Hg mph ° mph ° mph ° Y/N in/hr text Date Time Date Time in in in in in mi text
05/15/2019 12:08 AM 45.86 41.54 36.14 64.40 41.90 68.0 Not Reported 0.00 S 1.34 S 1.12 NW No 0.000 No Precipitation 04/30/2019 10:21 AM 04/30/2019 10:26 AM 0.000 0.000 0.000 0.000 0.000 Not Reported Not Reported
05/15/2019 12:23 AM 45.86 41.54 36.50 64.40 41.90 69.0 Not Reported 0.00 N 0.67 W 0.22 NW No 0.000 No Precipitation 04/30/2019 10:21 AM 04/30/2019 10:26 AM 0.000 0.000 0.000 0.000 0.000 Not Reported Not Reported
05/15/2019 12:38 AM 45.68 41.54 36.68 64.40 41.90 70.0 Not Reported 0.00 N 0.00 NW 0.67 W No 0.000 No Precipitation 04/30/2019 10:21 AM 04/30/2019 10:26 AM 0.000 0.000 0.000 0.000 0.000 Not Reported Not Reported
05/15/2019 12:54 AM 45.68 41.54 36.86 64.40 41.90 70.0 Not Reported 0.00 N 0.00 SW 0.22 SW No 0.000 No Precipitation 04/30/2019 10:21 AM 04/30/2019 10:26 AM 0.000 0.000 0.000 0.000 0.000 Not Reported Not Reported
05/15/2019 01:08 AM 45.14 41.36 36.68 64.40 41.90 72.0 Not Reported 0.00 NE 0.67 NE 1.34 N No 0.000 No Precipitation 04/30/2019 10:21 AM 04/30/2019 10:26 AM 0.000 0.000 0.000 0.000 0.000 Not Reported Not Reported
05/15/2019 01:23 AM 44.78 41.18 36.68 64.40 41.90 72.0 Not Reported 0.22 NW 0.00 W 0.22 NW No 0.000 No Precipitation 04/30/2019 10:21 AM 04/30/2019 10:26 AM 0.000 0.000 0.000 0.000 0.000 Not Reported Not Reported
05/15/2019 01:38 AM 44.78 41.00 36.68 64.40 41.90 73.0 Not Reported 0.00 N 0.00 SE 0.89 NW No 0.000 No Precipitation 04/30/2019 10:21 AM 04/30/2019 10:26 AM 0.000 0.000 0.000 0.000 0.000 Not Reported Not Reported
05/15/2019 01:53 AM 44.42 40.82 36.50 64.40 41.90 73.0 Not Reported 1.57 NW 0.67 NW 1.12 NW No 0.000 No Precipitation 04/30/2019 10:21 AM 04/30/2019 10:26 AM 0.000 0.000 0.000 0.000 0.000 Not Reported Not Reported
05/15/2019 02:08 AM 44.42 40.82 36.68 64.40 41.90 74.0 Not Reported 0.22 S 1.12 S 1.57 NW No 0.000 No Precipitation 04/30/2019 10:21 AM 04/30/2019 10:26 AM 0.000 0.000 0.000 0.000 0.000 Not Reported Not Reported
05/15/2019 02:23 AM 44.06 40.82 36.68 64.40 41.90 75.0 Not Reported 1.34 NW 2.68 S 1.12 N No 0.000 No Precipitation 04/30/2019 10:21 AM 04/30/2019 10:26 AM 0.000 0.000 0.000 0.000 0.000 Not Reported Not Reported
05/15/2019 02:38 AM 44.06 40.46 35.96 64.40 41.90 73.0 Not Reported 0.45 W 1.34 W 3.13 SE No 0.000 No Precipitation 04/30/2019 10:21 AM 04/30/2019 10:26 AM 0.000 0.000 0.000 0.000 0.000 Not Reported Not Reported
05/15/2019 02:53 AM 44.06 40.46 36.32 64.40 42.08 74.0 Not Reported 0.89 N 0.00 E 1.79 NW No 0.000 No Precipitation 04/30/2019 10:21 AM 04/30/2019 10:26 AM 0.000 0.000 0.000 0.000 0.000 Not Reported Not Reported
05/15/2019 03:08 AM 43.88 40.46 36.50 64.40 42.44 75.0 Not Reported 0.00 N 0.00 SW 1.34 N No 0.000 No Precipitation 04/30/2019 10:21 AM 04/30/2019 10:26 AM 0.000 0.000 0.000 0.000 0.000 Not Reported Not Reported
05/15/2019 03:23 AM 43.52 40.46 36.68 64.40 42.98 76.0 Not Reported 0.00 SE 0.00 SE 1.34 SE No 0.000 No Precipitation 04/30/2019 10:21 AM 04/30/2019 10:26 AM 0.000 0.000 0.000 0.000 0.000 Not Reported Not Reported
05/15/2019 03:38 AM 43.34 40.28 36.68 64.40 43.16 76.0 Not Reported 0.00 N 0.00 W 0.45 SE No 0.000 No Precipitation 04/30/2019 10:21 AM 04/30/2019 10:26 AM 0.000 0.000 0.000 0.000 0.000 Not Reported Not Reported
05/15/2019 03:53 AM 43.16 40.10 36.14 64.40 43.16 75.0 Not Reported 0.00 S 0.00 S 1.57 SE No 0.000 No Precipitation 04/30/2019 10:21 AM 04/30/2019 10:26 AM 0.000 0.000 0.000 0.000 0.000 Not Reported Not Reported
05/15/2019 04:09 AM 43.16 40.10 36.14 64.40 43.16 76.0 Not Reported 0.00 N 0.00 NW 0.22 S No 0.000 No Precipitation 04/30/2019 10:21 AM 04/30/2019 10:26 AM 0.000 0.000 0.000 0.000 0.000 Not Reported Not Reported
05/15/2019 04:23 AM 42.62 39.74 36.14 64.40 42.44 77.0 Not Reported 0.00 W 1.12 SE 1.34 NW No 0.000 No Precipitation 04/30/2019 10:21 AM 04/30/2019 10:26 AM 0.000 0.000 0.000 0.000 0.000 Not Reported Not Reported
05/15/2019 04:38 AM 42.80 39.56 35.78 64.40 42.44 76.0 Not Reported 0.67 SE 0.22 N 2.24 SE No 0.000 No Precipitation 04/30/2019 10:21 AM 04/30/2019 10:26 AM 0.000 0.000 0.000 0.000 0.000 Not Reported Not Reported
05/15/2019 04:54 AM 42.80 39.56 35.60 64.40 42.44 75.0 Not Reported 1.34 NW 0.00 W 2.24 NW No 0.000 No Precipitation 04/30/2019 10:21 AM 04/30/2019 10:26 AM 0.000 0.000 0.000 0.000 0.000 Not Reported Not Reported
05/15/2019 05:08 AM 42.80 39.38 35.24 64.40 42.44 74.0 Not Reported 0.89 S 0.67 S 1.57 NW No 0.000 No Precipitation 04/30/2019 10:21 AM 04/30/2019 10:26 AM 0.000 0.000 0.000 0.000 0.000 Not Reported Not Reported
05/15/2019 05:23 AM 42.80 39.38 35.06 64.40 42.44 74.0 Not Reported 2.24 N 1.79 S 2.68 S No 0.000 No Precipitation 04/30/2019 10:21 AM 04/30/2019 10:26 AM 0.000 0.000 0.000 0.000 0.000 Not Reported Not Reported
05/15/2019 05:38 AM 44.60 40.10 34.34 64.40 42.44 67.0 Not Reported 1.34 N 1.79 N 4.47 S No 0.000 No Precipitation 04/30/2019 10:21 AM 04/30/2019 10:26 AM 0.000 0.000 0.000 0.000 0.000 Not Reported Not Reported
05/15/2019 05:53 AM 45.14 40.28 34.16 64.40 42.44 65.0 Not Reported 0.67 W 0.67 NW 2.24 N No 0.000 No Precipitation 04/30/2019 10:21 AM 04/30/2019 10:26 AM 0.000 0.000 0.000 0.000 0.000 Not Reported Not Reported
05/15/2019 06:08 AM 44.24 39.92 34.52 64.40 42.44 68.0 Not Reported 0.89 NW 1.34 N 2.46 NW No 0.000 No Precipitation 04/30/2019 10:21 AM 04/30/2019 10:26 AM 0.000 0.000 0.000 0.000 0.000 Not Reported Not Reported
05/15/2019 06:23 AM 44.24 40.28 35.60 64.40 42.44 71.0 Not Reported 1.34 NW 0.00 SE 3.13 SE No 0.000 No Precipitation 04/30/2019 10:21 AM 04/30/2019 10:26 AM 0.000 0.000 0.000 0.000 0.000 Not Reported Not Reported
05/15/2019 06:38 AM 46.58 41.00 34.16 64.40 42.44 61.0 Not Reported 3.13 S 3.36 E 1.79 NW No 0.000 No Precipitation 04/30/2019 10:21 AM 04/30/2019 10:26 AM 0.000 0.000 0.000 0.000 0.000 Not Reported Not Reported
05/15/2019 06:53 AM 47.84 41.54 34.16 64.40 42.44 58.0 Not Reported 5.59 S 4.25 W 6.93 W No 0.000 No Precipitation 04/30/2019 10:21 AM 04/30/2019 10:26 AM 0.000 0.000 0.000 0.000 0.000 Not Reported Not Reported
05/15/2019 07:08 AM 47.66 41.90 35.06 64.40 42.44 61.0 Not Reported 2.46 S 2.68 S 6.93 S No 0.000 No Precipitation 04/30/2019 10:21 AM 04/30/2019 10:26 AM 0.000 0.000 0.000 0.000 0.000 Not Reported Not Reported
05/15/2019 07:23 AM 46.40 42.26 37.40 64.40 42.44 70.0 Not Reported 3.80 SE 2.24 SW 4.92 SW No 0.000 No Precipitation 04/30/2019 10:21 AM 04/30/2019 10:26 AM 0.000 0.000 0.000 0.000 0.000 Not Reported Not Reported
05/15/2019 07:38 AM 45.32 42.08 38.48 64.40 42.44 76.0 Not Reported 3.80 S 7.61 S 8.28 SW No 0.000 No Precipitation 04/30/2019 10:21 AM 04/30/2019 10:26 AM 0.000 0.000 0.000 0.000 0.000 Not Reported Not Reported
05/15/2019 07:53 AM 44.42 42.08 39.56 64.40 42.44 82.0 Not Reported 0.89 N 0.67 SW 5.82 S No 0.000 No Precipitation 04/30/2019 10:21 AM 04/30/2019 10:26 AM 0.000 0.000 0.000 0.000 0.000 Not Reported Not Reported
05/15/2019 08:09 AM 43.34 41.72 39.56 64.40 42.44 86.0 Not Reported 3.80 SW 3.80 SW 3.13 S Yes 0.043 Rain Slight 05/15/2019 01:08 AM   0.004 0.004 0.004 0.004 0.004 Not Reported Not Reported
05/15/2019 08:23 AM 43.34 41.18 38.84 64.40 42.44 83.0 Not Reported 3.36 SW 3.13 S 5.82 S No 0.000 No Precipitation 05/15/2019 01:08 AM 05/15/2019 01:13 AM 0.004 0.004 0.004 0.004 0.004 Not Reported Not Reported
05/15/2019 08:38 AM 44.06 41.90 39.38 64.40 42.44 83.0 Not Reported 2.46 SE 1.79 SE 5.37 NW No 0.000 No Precipitation 05/15/2019 01:08 AM 05/15/2019 01:13 AM 0.004 0.004 0.004 0.004 0.004 Not Reported Not Reported
05/15/2019 08:53 AM 44.06 42.08 40.10 64.40 42.44 85.0 Not Reported 0.89 NW 1.34 NW 1.34 S Yes 0.043 Rain Slight 05/15/2019 01:49 AM   0.008 0.008 0.008 0.008 0.008 Not Reported Not Reported
05/15/2019 09:09 AM 44.60 42.44 39.92 64.40 42.44 83.0 Not Reported 1.57 NW 2.01 W 2.01 N No 0.000 No Precipitation 05/15/2019 01:49 AM 05/15/2019 01:54 AM 0.004 0.008 0.008 0.008 0.008 Not Reported Not Reported
05/15/2019 09:23 AM 44.78 43.52 42.08 64.40 42.44 90.0 Not Reported 1.12 SE 1.12 S 1.57 SW No 0.000 No Precipitation 05/15/2019 01:49 AM 05/15/2019 01:54 AM 0.004 0.008 0.008 0.008 0.008 Not Reported Not Reported
05/15/2019 09:38 AM 44.60 43.16 41.72 64.40 42.44 89.0 Not Reported 1.34 S 0.22 NW 1.57 SE Yes 0.043 Rain Slight 05/15/2019 02:36 AM   0.008 0.008 0.008 0.008 0.008 Not Reported Not Reported
05/15/2019 09:53 AM 44.06 42.44 40.82 64.40 42.44 88.0 Not Reported 2.01 SE 4.47 S 4.92 W Yes 0.043 Rain Slight 05/15/2019 02:44 AM   0.008 0.020 0.020 0.020 0.020 Not Reported Not Reported
05/15/2019 10:08 AM 43.88 42.44 40.82 64.40 42.44 89.0 Not Reported 2.91 W 2.24 W 5.37 S Yes 0.043 Rain Slight 05/15/2019 03:08 AM   0.016 0.020 0.020 0.020 0.020 Not Reported Not Reported
05/15/2019 10:23 AM 44.06 42.62 41.18 64.40 42.44 89.0 Not Reported 2.91 S 2.24 SE 4.70 S Yes 0.043 Rain Slight 05/15/2019 03:19 AM   0.020 0.028 0.028 0.028 0.028 Not Reported Not Reported
05/15/2019 10:38 AM 44.42 42.62 40.64 64.40 42.44 86.0 Not Reported 4.25 S 4.03 SW 4.70 W No 0.000 No Precipitation 05/15/2019 03:31 AM 05/15/2019 03:36 AM 0.020 0.031 0.031 0.031 0.031 Not Reported Not Reported
05/15/2019 10:53 AM 45.32 42.98 40.64 64.40 42.44 83.0 Not Reported 3.80 S 1.12 W 5.82 S Yes 0.043 Rain Slight 05/15/2019 03:53 AM   0.016 0.035 0.035 0.035 0.035 Not Reported Not Reported
05/15/2019 11:09 AM 45.68 43.34 40.64 64.40 42.44 82.0 Not Reported 3.36 S 2.24 E 7.61 S No 0.000 No Precipitation 05/15/2019 03:53 AM 05/15/2019 03:58 AM 0.008 0.031 0.035 0.035 0.035 Not Reported Not Reported
05/15/2019 11:23 AM 46.58 42.98 39.20 64.40 42.44 75.0 Not Reported 3.80 SW 5.59 S 6.71 S No 0.000 No Precipitation 05/15/2019 03:53 AM 05/15/2019 03:58 AM 0.008 0.031 0.035 0.035 0.035 Not Reported Not Reported
05/15/2019 11:38 AM 46.94 44.42 41.72 64.40 42.44 82.0 Not Reported 5.37 S 4.92 SE 14.32 SE No 0.000 No Precipitation 05/15/2019 03:53 AM 05/15/2019 03:58 AM 0.004 0.031 0.035 0.035 0.035 Not Reported Not Reported
05/15/2019 11:53 AM 46.40 43.16 39.74 64.40 42.44 77.0 Not Reported 9.62 S 10.51 SE 10.74 S No 0.000 No Precipitation 05/15/2019 03:53 AM 05/15/2019 03:58 AM 0.000 0.028 0.035 0.035 0.035 Not Reported Not Reported
05/15/2019 12:08 PM 45.68 44.06 42.44 64.40 42.44 88.0 Not Reported 4.25 SW 3.13 SW 12.53 SE No 0.000 No Precipitation 05/15/2019 05:00 AM 05/15/2019 05:05 AM 0.004 0.031 0.039 0.039 0.039 Not Reported Not Reported
05/15/2019 12:23 PM 44.42 42.62 40.64 64.40 42.44 86.0 Not Reported 4.03 S 7.83 SW 10.07 SW Yes 0.043 Rain Slight 05/15/2019 05:23 AM   0.008 0.039 0.043 0.043 0.043 Not Reported Not Reported
05/15/2019 12:38 PM 43.88 42.26 40.46 64.40 42.44 87.0 Not Reported 7.61 SW 5.59 N 7.83 SW Yes 0.043 Rain Slight 05/15/2019 05:36 AM   0.020 0.039 0.055 0.055 0.055 Not Reported Not Reported
05/15/2019 12:53 PM 43.52 42.08 40.46 64.40 42.44 88.0 Not Reported 4.92 S 4.03 SW 9.84 SE No 0.000 No Precipitation 05/15/2019 05:36 AM 05/15/2019 05:41 AM 0.020 0.035 0.055 0.055 0.055 Not Reported Not Reported
05/15/2019 01:08 PM 44.42 42.44 40.46 64.40 42.44 85.0 Not Reported 8.05 S 4.03 SW 9.17 SW No 0.000 No Precipitation 05/15/2019 05:58 AM 05/15/2019 06:03 AM 0.020 0.035 0.059 0.059 0.059 Not Reported Not Reported
05/15/2019 01:23 PM 44.06 42.80 41.54 64.40 42.44 90.0 Not Reported 3.58 S 1.34 SW 8.50 S Yes 0.043 Rain Slight 05/15/2019 06:20 AM   0.020 0.039 0.067 0.067 0.067 Not Reported Not Reported
05/15/2019 01:38 PM 44.06 42.26 40.28 64.40 42.44 86.0 Not Reported 4.25 SW 3.80 SW 7.16 NW Yes 0.043 Rain Slight 05/15/2019 06:37 AM   0.020 0.039 0.075 0.075 0.075 Not Reported Not Reported
05/15/2019 01:53 PM 44.06 42.80 41.36 64.40 42.44 90.0 Not Reported 4.03 SW 3.13 SE 5.37 SW No 0.000 No Precipitation 05/15/2019 06:43 AM 05/15/2019 06:48 AM 0.020 0.039 0.079 0.079 0.079 Not Reported Not Reported
05/15/2019 02:08 PM 44.42 42.62 40.64 64.40 42.44 85.0 Not Reported 5.82 S 7.38 S 9.62 S No 0.000 No Precipitation 05/15/2019 07:00 AM 05/15/2019 07:05 AM 0.028 0.051 0.083 0.083 0.083 Not Reported Not Reported
05/15/2019 02:23 PM 45.14 42.80 40.46 64.40 42.44 83.0 Not Reported 9.40 SE 6.71 SW 14.54 S No 0.000 No Precipitation 05/15/2019 07:12 AM 05/15/2019 07:17 AM 0.020 0.055 0.083 0.091 0.091 Not Reported Not Reported
05/15/2019 02:38 PM 45.86 43.34 40.64 64.40 42.44 82.0 Not Reported 6.26 S 6.71 SW 10.96 S No 0.000 No Precipitation 05/15/2019 07:12 AM 05/15/2019 07:17 AM 0.016 0.055 0.083 0.091 0.091 Not Reported Not Reported
05/15/2019 02:53 PM 45.14 43.16 41.00 64.40 42.44 85.0 Not Reported 8.28 S 7.83 SE 12.08 SE No 0.000 No Precipitation 05/15/2019 07:12 AM 05/15/2019 07:17 AM 0.008 0.055 0.083 0.091 0.091 Not Reported Not Reported
05/15/2019 03:08 PM 45.50 43.70 41.90 64.40 42.44 86.0 Not Reported 6.49 W 3.13 S 11.63 SE Yes 0.043 Rain Slight 05/15/2019 08:06 AM   0.008 0.055 0.083 0.091 0.091 Not Reported Not Reported
05/15/2019 03:23 PM 44.96 42.98 40.82 62.24 42.44 85.0 Not Reported 5.59 W 6.26 W 10.29 W No 0.000 No Precipitation 05/15/2019 08:06 AM 05/15/2019 08:11 AM 0.004 0.043 0.083 0.091 0.091 Not Reported Not Reported
05/15/2019 03:38 PM 44.06 42.44 40.64 60.80 42.44 87.0 Not Reported 5.14 SW 7.83 S 8.28 SW Yes 0.043 Rain Slight 05/15/2019 08:37 AM   0.008 0.039 0.083 0.098 0.098 Not Reported Not Reported
05/15/2019 03:53 PM 44.24 42.08 39.74 60.80 42.44 83.0 Not Reported 4.47 S 10.29 S 9.62 SW No 0.000 No Precipitation 05/15/2019 08:37 AM 05/15/2019 08:42 AM 0.008 0.039 0.079 0.098 0.098 Not Reported Not Reported
05/15/2019 04:08 PM 44.42 42.62 40.64 60.80 42.44 86.0 Not Reported 7.61 SW 2.46 S 13.42 S No 0.000 No Precipitation 05/15/2019 08:37 AM 05/15/2019 08:42 AM 0.004 0.039 0.075 0.098 0.098 Not Reported Not Reported
05/15/2019 04:23 PM 44.42 42.08 39.56 60.80 42.44 82.0 Not Reported 2.91 S 2.46 W 9.17 S No 0.000 No Precipitation 05/15/2019 08:37 AM 05/15/2019 08:42 AM 0.004 0.031 0.071 0.098 0.098 Not Reported Not Reported
05/15/2019 04:38 PM 44.78 42.26 39.38 60.08 42.44 81.0 Not Reported 6.93 SW 8.72 S 9.40 SW No 0.000 No Precipitation 05/15/2019 08:37 AM 05/15/2019 08:42 AM 0.000 0.020 0.067 0.098 0.098 Not Reported Not Reported
05/15/2019 04:53 PM 44.78 42.62 40.46 59.90 42.44 84.0 Not Reported 4.03 S 3.36 SW 8.28 SW No 0.000 No Precipitation 05/15/2019 08:37 AM 05/15/2019 08:42 AM 0.000 0.020 0.063 0.098 0.098 Not Reported Not Reported
05/15/2019 05:08 PM 45.86 43.16 40.10 59.90 42.44 80.0 Not Reported 6.26 SE 7.83 SW 7.38 SW No 0.000 No Precipitation 05/15/2019 08:37 AM 05/15/2019 08:42 AM 0.000 0.008 0.063 0.098 0.098 Not Reported Not Reported
05/15/2019 05:23 PM 46.04 43.52 40.82 59.90 42.44 82.0 Not Reported 4.03 SW 4.92 S 9.17 S No 0.000 No Precipitation 05/15/2019 08:37 AM 05/15/2019 08:42 AM 0.000 0.008 0.063 0.098 0.098 Not Reported Not Reported
05/15/2019 05:38 PM 46.40 43.52 40.64 59.18 42.44 79.0 Not Reported 2.46 E 2.24 N 5.37 SW No 0.000 No Precipitation 05/15/2019 08:37 AM 05/15/2019 08:42 AM 0.000 0.008 0.063 0.098 0.098 Not Reported Not Reported
05/15/2019 05:53 PM 46.04 42.98 39.56 58.64 42.44 77.0 Not Reported 2.91 SW 6.26 SE 5.59 S No 0.000 No Precipitation 05/15/2019 08:37 AM 05/15/2019 08:42 AM 0.000 0.008 0.063 0.098 0.098 Not Reported Not Reported
05/15/2019 06:08 PM 44.78 42.80 40.64 57.56 42.44 84.0 Not Reported 5.59 SW 8.50 S 10.74 S Yes 0.043 Rain Slight 05/15/2019 11:07 AM   0.004 0.008 0.063 0.102 0.102 Not Reported Not Reported
05/15/2019 06:23 PM 44.06 42.62 41.00 57.02 42.44 88.0 Not Reported 4.25 S 5.59 S 10.96 SE No 0.000 No Precipitation 05/15/2019 11:18 AM 05/15/2019 11:23 AM 0.008 0.008 0.059 0.102 0.102 Not Reported Not Reported
05/15/2019 06:39 PM 43.88 42.26 40.46 56.30 42.44 87.0 Not Reported 5.37 S 2.91 S 9.17 S No 0.000 No Precipitation 05/15/2019 11:27 AM 05/15/2019 11:32 AM 0.008 0.008 0.055 0.110 0.110 Not Reported Not Reported
05/15/2019 06:53 PM 43.88 42.08 40.28 55.94 42.44 86.0 Not Reported 4.47 W 1.12 NE 6.71 W No 0.000 No Precipitation 05/15/2019 11:42 AM 05/15/2019 11:47 AM 0.016 0.016 0.059 0.110 0.110 Not Reported Not Reported
05/15/2019 07:08 PM 44.06 42.26 40.28 55.40 42.44 86.0 Not Reported 1.34 S 1.79 S 6.71 SW No 0.000 No Precipitation 05/15/2019 11:42 AM 05/15/2019 11:47 AM 0.008 0.016 0.055 0.110 0.110 Not Reported Not Reported
05/15/2019 07:24 PM 43.70 42.08 41.00 54.86 42.44 89.0 Not Reported 1.12 SE 0.67 N 3.13 NW No 0.000 No Precipitation 05/15/2019 11:42 AM 05/15/2019 11:47 AM 0.008 0.016 0.043 0.110 0.110 Not Reported Not Reported
05/15/2019 07:38 PM 43.34 41.90 40.28 54.32 42.44 89.0 Not Reported 1.57 W 1.57 W 2.91 SW No 0.000 No Precipitation 05/15/2019 11:42 AM 05/15/2019 11:47 AM 0.004 0.016 0.039 0.110 0.110 Not Reported Not Reported
05/15/2019 07:53 PM 43.16 42.26 41.18 53.96 42.44 92.0 Not Reported 3.80 W 2.46 W 5.14 W No 0.000 No Precipitation 05/15/2019 11:42 AM 05/15/2019 11:47 AM 0.000 0.016 0.035 0.110 0.110 Not Reported Not Reported
05/15/2019 08:08 PM 42.98 41.54 39.92 53.60 42.44 88.0 Not Reported 1.12 S 0.22 S 5.82 NW No 0.000 No Precipitation 05/15/2019 11:42 AM 05/15/2019 11:47 AM 0.000 0.016 0.028 0.110 0.110 Not Reported Not Reported
05/15/2019 08:23 PM 42.80 41.36 39.56 53.24 42.44 88.0 Not Reported 2.46 S 3.80 SW 3.36 S No 0.000 No Precipitation 05/15/2019 01:17 PM 05/15/2019 01:22 PM 0.004 0.020 0.028 0.110 0.118 Not Reported Not Reported
05/15/2019 08:38 PM 42.62 41.54 40.46 51.62 42.44 91.0 Not Reported 1.34 S 1.79 SW 4.03 S No 0.000 No Precipitation 05/15/2019 01:31 PM 05/15/2019 01:36 PM 0.008 0.020 0.031 0.118 0.122 Not Reported Not Reported
05/15/2019 08:53 PM 42.80 41.72 40.46 50.54 42.44 91.0 Not Reported 4.25 W 1.34 NW 5.82 SW Yes 0.043 Rain Slight 05/15/2019 01:50 PM   0.016 0.031 0.039 0.122 0.130 Not Reported Not Reported
05/15/2019 09:09 PM 42.44 41.36 40.28 50.18 42.44 91.0 Not Reported 2.01 SW 0.45 NW 6.26 SW Yes 0.085 Rain Moderate 05/15/2019 02:00 PM   0.031 0.039 0.051 0.138 0.146 Not Reported Not Reported
05/15/2019 09:23 PM 43.16 41.54 39.74 49.10 42.08 88.0 Not Reported 5.14 S 3.13 SE 4.47 SE No 0.000 No Precipitation 05/15/2019 02:00 PM 05/15/2019 02:18 PM 0.031 0.039 0.055 0.142 0.150 Not Reported Not Reported
05/15/2019 09:38 PM 41.90 41.36 40.64 48.02 41.90 95.0 Not Reported 0.00 N 1.12 NE 6.04 S No 0.000 No Precipitation 05/15/2019 02:26 PM 05/15/2019 02:31 PM 0.031 0.039 0.055 0.142 0.154 Not Reported Not Reported
05/15/2019 09:53 PM 42.08 41.72 41.36 48.02 41.90 97.0 Not Reported 0.67 N 1.12 SW 2.68 S No 0.000 No Precipitation 05/15/2019 02:48 PM 05/15/2019 02:53 PM 0.031 0.043 0.063 0.142 0.161 Not Reported Not Reported
05/15/2019 10:08 PM 41.72 41.36 41.00 48.02 41.72 96.0 Not Reported 1.79 N 1.34 E 5.14 S Yes 0.043 Rain Slight 05/15/2019 03:08 PM   0.020 0.055 0.071 0.146 0.165 Not Reported Not Reported
05/15/2019 10:23 PM 41.90 41.54 41.36 48.02 41.72 97.0 Not Reported 1.79 SE 1.79 N 3.80 N No 0.000 No Precipitation 05/15/2019 03:08 PM 05/15/2019 03:13 PM 0.020 0.055 0.071 0.142 0.165 Not Reported Not Reported
05/15/2019 10:38 PM 41.90 41.72 41.36 48.02 41.72 97.0 Not Reported 2.24 S 2.01 S 2.24 SE Yes 0.043 Rain Slight 05/15/2019 03:38 PM   0.020 0.059 0.075 0.142 0.169 Not Reported Not Reported
05/15/2019 10:53 PM 41.90 41.72 41.54 48.02 41.72 98.0 Not Reported 0.89 W 1.34 N 2.68 N Yes 0.043 Rain Slight 05/15/2019 03:49 PM   0.016 0.063 0.079 0.142 0.177 Not Reported Not Reported
05/15/2019 11:09 PM 41.90 41.72 41.54 48.02 41.72 98.0 Not Reported 1.12 W 0.67 N 1.57 W No 0.000 No Precipitation 05/15/2019 04:02 PM 05/15/2019 04:07 PM 0.016 0.071 0.083 0.150 0.185 Not Reported Not Reported
05/15/2019 11:23 PM 41.54 41.54 41.36 48.02 41.54 98.0 Not Reported 0.89 NE 4.92 W 2.01 SW No 0.000 No Precipitation 05/15/2019 04:18 PM 05/15/2019 04:23 PM 0.020 0.075 0.091 0.157 0.189 Not Reported Not Reported
05/15/2019 11:38 PM 41.54 40.82 39.92 48.02 41.36 93.0 Not Reported 2.01 SW 2.01 SW 4.92 W Yes 0.043 Rain Slight 05/15/2019 04:31 PM   0.031 0.083 0.102 0.165 0.205 Not Reported Not Reported
05/15/2019 11:53 PM 41.54 40.10 38.66 48.02 41.36 89.0 Not Reported 5.14 SW 2.46 W 5.82 S Yes 0.043 Rain Slight 05/15/2019 04:42 PM   0.039 0.083 0.118 0.181 0.217 Not Reported Not Reported